sensor_id;sensor_type;location;lat;lon;timestamp;pressure;altitude;pressure_sealevel;temperature;humidity
67015;BME280;1033;52.560;13.374;2023-04-01T00:13:26;99149.03;;;10.18;100.00
67015;BME280;1033;52.560;13.374;2023-04-01T01:11:50;99149.53;;;10.03;100.00
67015;BME280;1033;52.560;13.374;2023-04-01T01:14:29;99147.16;;;10.19;100.00
67015;BME280;1033;52.560;13.374;2023-04-01T01:17:05;99144.53;;;10.24;100.00
67015;BME280;1033;52.560;13.374;2023-04-01T01:26:16;99150.22;;;10.11;100.00
67015;BME280;1033;52.560;13.374;2023-04-01T01:29:00;99151.09;;;10.28;100.00
67015;BME280;1033;52.560;13.374;2023-04-01T01:31:41;99155.59;;;10.22;100.00
67015;BME280;1033;52.560;13.374;2023-04-01T01:34:19;99154.56;;;10.12;100.00
67015;BME280;1033;52.560;13.374;2023-04-01T01:36:56;99156.78;;;10.15;100.00
67015;BME280;1033;52.560;13.374;2023-04-01T01:39:30;99153.97;;;10.21;100.00
67015;BME280;1033;52.560;13.374;2023-04-01T01:42:03;99155.84;;;10.21;100.00
67015;BME280;1033;52.560;13.374;2023-04-01T01:44:34;99159.63;;;10.20;100.00
67015;BME280;1033;52.560;13.374;2023-04-01T01:47:04;99157.00;;;10.25;100.00
67015;BME280;1033;52.560;13.374;2023-04-01T01:49:34;99157.97;;;10.19;100.00
67015;BME280;1033;52.560;13.374;2023-04-01T01:52:06;99162.56;;;10.18;100.00
67015;BME280;1033;52.560;13.374;2023-04-01T01:54:35;99155.97;;;10.14;100.00
67015;BME280;1033;52.560;13.374;2023-04-01T01:57:07;99154.22;;;10.20;100.00
67015;BME280;1033;52.560;13.374;2023-04-01T01:59:43;99160.53;;;10.14;100.00
67015;BME280;1033;52.560;13.374;2023-04-01T02:02:21;99161.09;;;10.27;100.00
67015;BME280;1033;52.560;13.374;2023-04-01T02:04:52;99160.91;;;10.17;100.00
67015;BME280;1033;52.560;13.374;2023-04-01T02:07:27;99168.78;;;10.19;100.00
67015;BME280;1033;52.560;13.374;2023-04-01T02:09:58;99169.97;;;10.11;100.00
67015;BME280;1033;52.560;13.374;2023-04-01T02:12:29;99157.59;;;10.15;100.00
67015;BME280;1033;52.560;13.374;2023-04-01T02:15:03;99164.53;;;10.23;100.00
67015;BME280;1033;52.560;13.374;2023-04-01T02:17:37;99163.47;;;10.24;100.00
67015;BME280;1033;52.560;13.374;2023-04-01T02:20:11;99169.78;;;10.29;100.00
67015;BME280;1033;52.560;13.374;2023-04-01T02:22:46;99169.97;;;10.11;100.00
67015;BME280;1033;52.560;13.374;2023-04-01T02:25:19;99157.00;;;10.13;100.00
67015;BME280;1033;52.560;13.374;2023-04-01T02:27:49;99163.00;;;10.15;100.00
67015;BME280;1033;52.560;13.374;2023-04-01T02:30:19;99174.88;;;10.14;100.00
67015;BME280;1033;52.560;13.374;2023-04-01T02:32:48;99163.13;;;10.09;100.00
67015;BME280;1033;52.560;13.374;2023-04-01T02:35:18;99172.47;;;10.01;100.00
67015;BME280;1033;52.560;13.374;2023-04-01T02:37:50;99174.44;;;10.06;100.00
67015;BME280;1033;52.560;13.374;2023-04-01T02:40:21;99174.28;;;10.12;100.00
67015;BME280;1033;52.560;13.374;2023-04-01T02:42:50;99178.41;;;10.15;100.00
67015;BME280;1033;52.560;13.374;2023-04-01T02:45:19;99180.50;;;10.13;100.00
67015;BME280;1033;52.560;13.374;2023-04-01T02:47:49;99176.56;;;10.03;100.00
67015;BME280;1033;52.560;13.374;2023-04-01T02:50:18;99176.19;;;10.12;100.00
67015;BME280;1033;52.560;13.374;2023-04-01T02:52:48;99188.38;;;10.14;100.00
67015;BME280;1033;52.560;13.374;2023-04-01T02:55:17;99182.66;;;10.11;100.00
67015;BME280;1033;52.560;13.374;2023-04-01T02:57:46;99183.34;;;10.18;100.00
67015;BME280;1033;52.560;13.374;2023-04-01T03:00:17;99188.72;;;10.29;100.00
67015;BME280;1033;52.560;13.374;2023-04-01T03:02:46;99187.66;;;10.30;100.00
67015;BME280;1033;52.560;13.374;2023-04-01T03:05:15;99195.31;;;10.22;100.00
67015;BME280;1033;52.560;13.374;2023-04-01T03:07:45;99196.00;;;10.29;100.00
67015;BME280;1033;52.560;13.374;2023-04-01T03:10:16;99191.47;;;10.18;100.00
67015;BME280;1033;52.560;13.374;2023-04-01T03:12:45;99196.31;;;10.16;100.00
67015;BME280;1033;52.560;13.374;2023-04-01T03:15:14;99192.97;;;10.14;100.00
67015;BME280;1033;52.560;13.374;2023-04-01T03:17:44;99190.91;;;10.16;100.00
67015;BME280;1033;52.560;13.374;2023-04-01T03:20:14;99196.50;;;10.14;100.00
67015;BME280;1033;52.560;13.374;2023-04-01T03:22:44;99197.13;;;10.16;100.00
67015;BME280;1033;52.560;13.374;2023-04-01T03:25:15;99200.63;;;10.17;100.00
67015;BME280;1033;52.560;13.374;2023-04-01T03:27:44;99195.44;;;10.15;100.00
67015;BME280;1033;52.560;13.374;2023-04-01T03:30:13;99200.72;;;10.22;100.00
67015;BME280;1033;52.560;13.374;2023-04-01T03:32:49;99204.97;;;10.18;100.00
67015;BME280;1033;52.560;13.374;2023-04-01T03:35:18;99204.00;;;10.24;100.00
67015;BME280;1033;52.560;13.374;2023-04-01T03:37:47;99208.59;;;10.23;100.00
67015;BME280;1033;52.560;13.374;2023-04-01T03:40:19;99209.91;;;10.21;100.00
67015;BME280;1033;52.560;13.374;2023-04-01T03:42:48;99207.50;;;10.36;100.00
67015;BME280;1033;52.560;13.374;2023-04-01T03:45:18;99210.47;;;10.23;100.00
67015;BME280;1033;52.560;13.374;2023-04-01T03:47:47;99217.94;;;10.16;100.00
67015;BME280;1033;52.560;13.374;2023-04-01T03:50:17;99214.38;;;10.15;100.00
67015;BME280;1033;52.560;13.374;2023-04-01T03:52:47;99217.75;;;10.22;100.00
67015;BME280;1033;52.560;13.374;2023-04-01T03:55:17;99219.63;;;10.33;100.00
67015;BME280;1033;52.560;13.374;2023-04-01T03:57:47;99222.09;;;10.35;100.00
67015;BME280;1033;52.560;13.374;2023-04-01T04:00:19;99221.72;;;10.31;100.00
67015;BME280;1033;52.560;13.374;2023-04-01T04:02:53;99219.50;;;10.28;100.00
67015;BME280;1033;52.560;13.374;2023-04-01T04:05:29;99228.69;;;10.27;100.00
67015;BME280;1033;52.560;13.374;2023-04-01T04:07:59;99229.94;;;10.36;100.00
67015;BME280;1033;52.560;13.374;2023-04-01T04:10:29;99233.63;;;10.30;100.00
67015;BME280;1033;52.560;13.374;2023-04-01T04:12:58;99231.06;;;10.24;100.00
67015;BME280;1033;52.560;13.374;2023-04-01T04:15:30;99242.25;;;10.16;100.00
67015;BME280;1033;52.560;13.374;2023-04-01T04:17:59;99239.06;;;10.19;100.00
67015;BME280;1033;52.560;13.374;2023-04-01T04:20:29;99237.41;;;10.18;100.00
67015;BME280;1033;52.560;13.374;2023-04-01T04:22:58;99238.69;;;10.15;100.00
67015;BME280;1033;52.560;13.374;2023-04-01T04:25:30;99240.69;;;10.20;100.00
67015;BME280;1033;52.560;13.374;2023-04-01T04:28:00;99243.06;;;10.04;100.00
67015;BME280;1033;52.560;13.374;2023-04-01T04:30:29;99246.09;;;10.08;100.00
67015;BME280;1033;52.560;13.374;2023-04-01T04:32:59;99235.53;;;10.07;100.00
67015;BME280;1033;52.560;13.374;2023-04-01T04:35:29;99248.34;;;10.11;100.00
67015;BME280;1033;52.560;13.374;2023-04-01T04:37:59;99248.34;;;10.11;100.00
67015;BME280;1033;52.560;13.374;2023-04-01T04:40:29;99253.16;;;10.21;100.00
67015;BME280;1033;52.560;13.374;2023-04-01T04:42:59;99248.47;;;10.16;100.00
67015;BME280;1033;52.560;13.374;2023-04-01T04:45:28;99250.91;;;10.18;100.00
67015;BME280;1033;52.560;13.374;2023-04-01T04:47:58;99250.44;;;10.09;100.00
67015;BME280;1033;52.560;13.374;2023-04-01T04:50:28;99252.19;;;10.15;100.00
67015;BME280;1033;52.560;13.374;2023-04-01T04:52:58;99261.03;;;10.11;100.00
67015;BME280;1033;52.560;13.374;2023-04-01T04:55:28;99255.47;;;10.29;100.00
67015;BME280;1033;52.560;13.374;2023-04-01T04:58:16;99258.63;;;10.37;100.00
67015;BME280;1033;52.560;13.374;2023-04-01T05:00:46;99261.72;;;10.29;100.00
67015;BME280;1033;52.560;13.374;2023-04-01T05:03:28;99263.19;;;10.37;100.00
67015;BME280;1033;52.560;13.374;2023-04-01T05:05:58;99263.59;;;10.29;100.00
67015;BME280;1033;52.560;13.374;2023-04-01T05:08:27;99256.06;;;10.31;100.00
67015;BME280;1033;52.560;13.374;2023-04-01T05:10:57;99260.88;;;10.29;100.00
67015;BME280;1033;52.560;13.374;2023-04-01T05:13:27;99268.28;;;10.33;100.00
67015;BME280;1033;52.560;13.374;2023-04-01T05:15:56;99271.00;;;10.22;100.00
67015;BME280;1033;52.560;13.374;2023-04-01T05:18:25;99269.59;;;10.31;100.00
67015;BME280;1033;52.560;13.374;2023-04-01T05:20:55;99275.28;;;10.46;100.00
67015;BME280;1033;52.560;13.374;2023-04-01T05:23:24;99273.56;;;10.40;100.00
67015;BME280;1033;52.560;13.374;2023-04-01T05:25:54;99267.47;;;10.33;100.00
67015;BME280;1033;52.560;13.374;2023-04-01T05:28:26;99268.41;;;10.27;100.00
67015;BME280;1033;52.560;13.374;2023-04-01T05:30:55;99273.91;;;10.32;100.00
67015;BME280;1033;52.560;13.374;2023-04-01T05:33:31;99278.38;;;10.38;100.00
67015;BME280;1033;52.560;13.374;2023-04-01T05:36:07;99276.38;;;10.33;100.00
67015;BME280;1033;52.560;13.374;2023-04-01T05:38:36;99285.91;;;10.36;100.00
67015;BME280;1033;52.560;13.374;2023-04-01T05:41:09;99282.91;;;10.21;100.00
67015;BME280;1033;52.560;13.374;2023-04-01T05:43:43;99277.94;;;10.29;100.00
67015;BME280;1033;52.560;13.374;2023-04-01T05:46:33;99282.13;;;10.37;100.00
67015;BME280;1033;52.560;13.374;2023-04-01T05:49:22;99286.47;;;10.38;100.00
67015;BME280;1033;52.560;13.374;2023-04-01T05:51:55;99289.78;;;10.40;100.00
67015;BME280;1033;52.560;13.374;2023-04-01T05:54:26;99290.44;;;10.47;100.00
67015;BME280;1033;52.560;13.374;2023-04-01T05:56:57;99295.50;;;10.55;100.00
67015;BME280;1033;52.560;13.374;2023-04-01T05:59:28;99298.19;;;10.55;100.00
67015;BME280;1033;52.560;13.374;2023-04-01T06:01:59;99295.41;;;10.50;100.00
67015;BME280;1033;52.560;13.374;2023-04-01T06:04:34;99302.06;;;10.59;100.00
67015;BME280;1033;52.560;13.374;2023-04-01T06:07:11;99307.63;;;10.41;100.00
67015;BME280;1033;52.560;13.374;2023-04-01T06:09:41;99296.25;;;10.67;100.00
67015;BME280;1033;52.560;13.374;2023-04-01T06:15:35;99310.50;;;10.63;100.00
67015;BME280;1033;52.560;13.374;2023-04-01T06:18:36;99317.22;;;10.60;100.00
67015;BME280;1033;52.560;13.374;2023-04-01T06:21:17;99318.72;;;10.68;100.00
67015;BME280;1033;52.560;13.374;2023-04-01T06:24:17;99322.81;;;10.70;100.00
67015;BME280;1033;52.560;13.374;2023-04-01T06:26:59;99324.28;;;10.61;100.00
67015;BME280;1033;52.560;13.374;2023-04-01T06:30:02;99321.34;;;10.63;100.00
67015;BME280;1033;52.560;13.374;2023-04-01T06:32:54;99326.88;;;10.56;100.00
67015;BME280;1033;52.560;13.374;2023-04-01T06:35:44;99333.44;;;10.60;100.00
67015;BME280;1033;52.560;13.374;2023-04-01T06:38:34;99331.59;;;10.49;100.00
67015;BME280;1033;52.560;13.374;2023-04-01T06:41:29;99335.84;;;10.45;100.00
67015;BME280;1033;52.560;13.374;2023-04-01T06:44:14;99332.06;;;10.46;100.00
67015;BME280;1033;52.560;13.374;2023-04-01T06:47:18;99345.25;;;10.54;100.00
67015;BME280;1033;52.560;13.374;2023-04-01T06:50:19;99339.34;;;10.57;100.00
67015;BME280;1033;52.560;13.374;2023-04-01T06:53:01;99338.84;;;10.60;100.00
67015;BME280;1033;52.560;13.374;2023-04-01T06:55:55;99344.97;;;10.56;100.00
67015;BME280;1033;52.560;13.374;2023-04-01T06:58:48;99347.88;;;10.66;100.00
67015;BME280;1033;52.560;13.374;2023-04-01T07:01:25;99346.84;;;10.67;100.00
67015;BME280;1033;52.560;13.374;2023-04-01T07:03:57;99341.75;;;10.70;100.00
67015;BME280;1033;52.560;13.374;2023-04-01T07:06:35;99345.91;;;10.61;100.00
67015;BME280;1033;52.560;13.374;2023-04-01T07:09:06;99344.75;;;10.57;100.00
67015;BME280;1033;52.560;13.374;2023-04-01T07:12:12;99349.53;;;10.67;100.00
67015;BME280;1033;52.560;13.374;2023-04-01T07:15:13;99347.88;;;10.77;100.00
67015;BME280;1033;52.560;13.374;2023-04-01T07:17:44;99350.56;;;10.77;100.00
67015;BME280;1033;52.560;13.374;2023-04-01T07:20:22;99350.91;;;10.81;100.00
67015;BME280;1033;52.560;13.374;2023-04-01T07:22:56;99363.72;;;10.85;100.00
67015;BME280;1033;52.560;13.374;2023-04-01T07:25:33;99362.66;;;10.86;100.00
67015;BME280;1033;52.560;13.374;2023-04-01T07:28:35;99360.56;;;10.77;100.00
67015;BME280;1033;52.560;13.374;2023-04-01T07:31:30;99372.97;;;10.61;100.00
67015;BME280;1033;52.560;13.374;2023-04-01T07:34:08;99372.22;;;10.26;100.00
67015;BME280;1033;52.560;13.374;2023-04-01T07:36:42;99379.34;;;10.43;100.00
67015;BME280;1033;52.560;13.374;2023-04-01T07:39:27;99374.59;;;10.62;100.00
67015;BME280;1033;52.560;13.374;2023-04-01T07:42:13;99377.91;;;10.64;100.00
67015;BME280;1033;52.560;13.374;2023-04-01T07:44:50;99379.50;;;10.77;100.00
67015;BME280;1033;52.560;13.374;2023-04-01T07:47:45;99382.38;;;10.99;100.00
67015;BME280;1033;52.560;13.374;2023-04-01T07:50:25;99371.63;;;10.75;100.00
67015;BME280;1033;52.560;13.374;2023-04-01T07:53:03;99380.75;;;10.98;100.00
67015;BME280;1033;52.560;13.374;2023-04-01T07:55:45;99383.78;;;11.01;100.00
67015;BME280;1033;52.560;13.374;2023-04-01T07:58:22;99392.50;;;11.03;100.00
67015;BME280;1033;52.560;13.374;2023-04-01T08:01:00;99393.25;;;10.75;100.00
67015;BME280;1033;52.560;13.374;2023-04-01T08:03:50;99395.25;;;10.40;100.00
67015;BME280;1033;52.560;13.374;2023-04-01T08:06:27;99396.66;;;10.19;100.00
67015;BME280;1033;52.560;13.374;2023-04-01T08:09:04;99399.91;;;9.98;100.00
67015;BME280;1033;52.560;13.374;2023-04-01T08:12:09;99402.72;;;9.80;100.00
67015;BME280;1033;52.560;13.374;2023-04-01T08:15:09;99402.38;;;9.76;100.00
67015;BME280;1033;52.560;13.374;2023-04-01T08:18:03;99405.03;;;9.53;100.00
67015;BME280;1033;52.560;13.374;2023-04-01T08:20:37;99411.44;;;9.40;100.00
67015;BME280;1033;52.560;13.374;2023-04-01T08:23:13;99412.25;;;9.41;100.00
67015;BME280;1033;52.560;13.374;2023-04-01T08:25:49;99413.88;;;9.30;100.00
67015;BME280;1033;52.560;13.374;2023-04-01T08:28:26;99420.09;;;9.31;100.00
67015;BME280;1033;52.560;13.374;2023-04-01T08:31:04;99426.88;;;9.22;100.00
67015;BME280;1033;52.560;13.374;2023-04-01T08:33:36;99420.75;;;9.14;100.00
67015;BME280;1033;52.560;13.374;2023-04-01T08:36:11;99426.00;;;9.09;100.00
67015;BME280;1033;52.560;13.374;2023-04-01T08:38:53;99434.66;;;9.00;100.00
67015;BME280;1033;52.560;13.374;2023-04-01T08:45:15;99444.25;;;9.26;100.00
67015;BME280;1033;52.560;13.374;2023-04-01T08:51:20;99440.97;;;9.24;100.00
67015;BME280;1033;52.560;13.374;2023-04-01T08:54:16;99447.97;;;9.13;100.00
67015;BME280;1033;52.560;13.374;2023-04-01T08:56:57;99444.44;;;9.12;100.00
67015;BME280;1033;52.560;13.374;2023-04-01T08:59:46;99448.72;;;9.02;100.00
67015;BME280;1033;52.560;13.374;2023-04-01T09:03:22;99444.78;;;9.16;100.00
67015;BME280;1033;52.560;13.374;2023-04-01T09:06:25;99454.31;;;9.19;100.00
67015;BME280;1033;52.560;13.374;2023-04-01T09:15:35;99451.56;;;9.37;100.00
67015;BME280;1033;52.560;13.374;2023-04-01T09:21:24;99461.91;;;9.40;100.00
67015;BME280;1033;52.560;13.374;2023-04-01T09:24:31;99462.31;;;9.25;100.00
67015;BME280;1033;52.560;13.374;2023-04-01T09:27:05;99469.16;;;9.28;100.00
67015;BME280;1033;52.560;13.374;2023-04-01T09:30:06;99475.94;;;9.30;100.00
67015;BME280;1033;52.560;13.374;2023-04-01T09:32:59;99486.25;;;9.22;100.00
67015;BME280;1033;52.560;13.374;2023-04-01T09:35:42;99489.34;;;9.07;100.00
67015;BME280;1033;52.560;13.374;2023-04-01T09:38:22;99484.31;;;9.10;100.00
67015;BME280;1033;52.560;13.374;2023-04-01T09:40:56;99490.66;;;9.16;100.00
67015;BME280;1033;52.560;13.374;2023-04-01T09:43:50;99487.31;;;9.02;100.00
67015;BME280;1033;52.560;13.374;2023-04-01T09:46:35;99495.09;;;9.10;100.00
67015;BME280;1033;52.560;13.374;2023-04-01T09:52:29;99499.47;;;9.41;100.00
67015;BME280;1033;52.560;13.374;2023-04-01T09:55:38;99507.66;;;9.35;100.00
67015;BME280;1033;52.560;13.374;2023-04-01T10:02:24;99506.34;;;9.07;100.00
67015;BME280;1033;52.560;13.374;2023-04-01T10:05:41;99513.19;;;9.10;100.00
67015;BME280;1033;52.560;13.374;2023-04-01T10:18:35;99527.03;;;8.77;100.00
67015;BME280;1033;52.560;13.374;2023-04-01T10:21:31;99535.06;;;8.84;100.00
67015;BME280;1033;52.560;13.374;2023-04-01T10:24:37;99533.34;;;8.71;100.00
67015;BME280;1033;52.560;13.374;2023-04-01T10:27:44;99538.84;;;8.58;100.00
67015;BME280;1033;52.560;13.374;2023-04-01T10:31:02;99545.81;;;8.65;100.00
67015;BME280;1033;52.560;13.374;2023-04-01T10:34:14;99536.69;;;8.66;100.00
67015;BME280;1033;52.560;13.374;2023-04-01T10:36:54;99542.56;;;8.57;100.00
67015;BME280;1033;52.560;13.374;2023-04-01T10:56:33;99555.94;;;8.70;100.00
67015;BME280;1033;52.560;13.374;2023-04-01T11:03:02;99551.53;;;8.33;100.00
67015;BME280;1033;52.560;13.374;2023-04-01T11:12:45;99562.59;;;8.43;100.00
67015;BME280;1033;52.560;13.374;2023-04-01T11:15:37;99561.53;;;8.50;100.00
67015;BME280;1033;52.560;13.374;2023-04-01T11:18:51;99573.88;;;8.58;100.00
67015;BME280;1033;52.560;13.374;2023-04-01T11:21:59;99574.94;;;8.32;100.00
67015;BME280;1033;52.560;13.374;2023-04-01T11:25:03;99570.19;;;8.27;100.00
67015;BME280;1033;52.560;13.374;2023-04-01T11:28:07;99581.38;;;8.24;100.00
67015;BME280;1033;52.560;13.374;2023-04-01T11:30:53;99586.59;;;8.19;100.00
67015;BME280;1033;52.560;13.374;2023-04-01T11:33:33;99581.69;;;8.10;100.00
67015;BME280;1033;52.560;13.374;2023-04-01T11:36:11;99584.88;;;8.00;100.00
67015;BME280;1033;52.560;13.374;2023-04-01T11:39:00;99583.50;;;7.91;100.00
67015;BME280;1033;52.560;13.374;2023-04-01T11:42:28;99594.00;;;7.99;100.00
67015;BME280;1033;52.560;13.374;2023-04-01T11:45:46;99598.50;;;8.12;100.00
67015;BME280;1033;52.560;13.374;2023-04-01T11:48:43;99599.38;;;7.99;100.00
67015;BME280;1033;52.560;13.374;2023-04-01T11:52:09;99601.13;;;7.87;100.00
67015;BME280;1033;52.560;13.374;2023-04-01T11:55:31;99607.72;;;7.91;100.00
67015;BME280;1033;52.560;13.374;2023-04-01T12:01:20;99621.69;;;7.75;100.00
67015;BME280;1033;52.560;13.374;2023-04-01T12:04:17;99622.69;;;7.80;100.00
67015;BME280;1033;52.560;13.374;2023-04-01T12:06:57;99630.56;;;7.82;100.00
67015;BME280;1033;52.560;13.374;2023-04-01T12:09:36;99632.69;;;7.73;100.00
67015;BME280;1033;52.560;13.374;2023-04-01T12:12:18;99635.59;;;7.72;100.00
67015;BME280;1033;52.560;13.374;2023-04-01T12:14:59;99635.13;;;7.81;100.00
67015;BME280;1033;52.560;13.374;2023-04-01T12:17:36;99636.78;;;7.82;100.00
67015;BME280;1033;52.560;13.374;2023-04-01T12:20:30;99643.00;;;7.83;100.00
67015;BME280;1033;52.560;13.374;2023-04-01T12:23:21;99641.78;;;7.79;100.00
67015;BME280;1033;52.560;13.374;2023-04-01T12:26:15;99646.91;;;7.87;100.00
67015;BME280;1033;52.560;13.374;2023-04-01T12:29:04;99660.38;;;7.87;100.00
67015;BME280;1033;52.560;13.374;2023-04-01T12:31:42;99658.41;;;7.69;100.00
67015;BME280;1033;52.560;13.374;2023-04-01T12:37:35;99659.50;;;7.49;100.00
67015;BME280;1033;52.560;13.374;2023-04-01T12:40:19;99664.44;;;7.58;100.00
67015;BME280;1033;52.560;13.374;2023-04-01T12:43:02;99669.00;;;7.58;100.00
67015;BME280;1033;52.560;13.374;2023-04-01T12:45:38;99679.09;;;7.69;100.00
67015;BME280;1033;52.560;13.374;2023-04-01T12:51:35;99672.91;;;7.55;100.00
67015;BME280;1033;52.560;13.374;2023-04-01T12:54:34;99682.63;;;7.63;100.00
67015;BME280;1033;52.560;13.374;2023-04-01T12:57:23;99681.59;;;7.64;100.00
67015;BME280;1033;52.560;13.374;2023-04-01T13:00:14;99688.66;;;7.65;100.00
67015;BME280;1033;52.560;13.374;2023-04-01T13:03:07;99684.56;;;7.49;100.00
67015;BME280;1033;52.560;13.374;2023-04-01T13:09:00;99704.03;;;7.45;100.00
67015;BME280;1033;52.560;13.374;2023-04-01T13:11:40;99704.03;;;7.38;100.00
67015;BME280;1033;52.560;13.374;2023-04-01T13:17:14;99702.97;;;7.46;100.00
67015;BME280;1033;52.560;13.374;2023-04-01T13:19:49;99711.03;;;7.52;100.00
67015;BME280;1033;52.560;13.374;2023-04-01T13:22:44;99710.63;;;7.49;100.00
67015;BME280;1033;52.560;13.374;2023-04-01T13:25:22;99716.22;;;7.54;100.00
67015;BME280;1033;52.560;13.374;2023-04-01T13:27:58;99724.09;;;7.49;100.00
67015;BME280;1033;52.560;13.374;2023-04-01T13:30:37;99723.66;;;7.52;100.00
67015;BME280;1033;52.560;13.374;2023-04-01T13:33:17;99734.03;;;7.41;100.00
67015;BME280;1033;52.560;13.374;2023-04-01T13:36:06;99732.41;;;7.34;100.00
67015;BME280;1033;52.560;13.374;2023-04-01T13:41:43;99740.47;;;7.27;100.00
67015;BME280;1033;52.560;13.374;2023-04-01T13:44:22;99739.44;;;7.28;100.00
67015;BME280;1033;52.560;13.374;2023-04-01T13:53:18;99741.31;;;7.21;100.00
67015;BME280;1033;52.560;13.374;2023-04-01T13:55:59;99750.84;;;7.11;100.00
67015;BME280;1033;52.560;13.374;2023-04-01T13:58:55;99746.31;;;7.11;100.00
67015;BME280;1033;52.560;13.374;2023-04-01T14:01:33;99749.81;;;7.05;100.00
67015;BME280;1033;52.560;13.374;2023-04-01T14:04:28;99758.47;;;7.07;100.00
67015;BME280;1033;52.560;13.374;2023-04-01T14:07:09;99758.91;;;6.97;100.00
67015;BME280;1033;52.560;13.374;2023-04-01T14:10:03;99762.84;;;6.95;100.00
67015;BME280;1033;52.560;13.374;2023-04-01T14:12:41;99765.31;;;6.90;100.00
67015;BME280;1033;52.560;13.374;2023-04-01T14:15:33;99775.25;;;6.89;100.00
67015;BME280;1033;52.560;13.374;2023-04-01T14:18:23;99784.97;;;6.84;100.00
67015;BME280;1033;52.560;13.374;2023-04-01T14:21:07;99781.03;;;6.86;100.00
67015;BME280;1033;52.560;13.374;2023-04-01T14:24:01;99783.94;;;6.91;100.00
67015;BME280;1033;52.560;13.374;2023-04-01T14:29:56;99795.94;;;6.89;100.00
67015;BME280;1033;52.560;13.374;2023-04-01T14:32:35;99803.00;;;6.96;100.00
67015;BME280;1033;52.560;13.374;2023-04-01T14:35:33;99800.69;;;6.87;100.00
67015;BME280;1033;52.560;13.374;2023-04-01T14:38:30;99789.31;;;6.91;100.00
67015;BME280;1033;52.560;13.374;2023-04-01T14:41:17;99804.63;;;6.91;100.00
67015;BME280;1033;52.560;13.374;2023-04-01T14:44:01;99812.91;;;6.96;100.00
67015;BME280;1033;52.560;13.374;2023-04-01T14:47:01;99806.69;;;7.02;100.00
67015;BME280;1033;52.560;13.374;2023-04-01T14:49:35;99807.94;;;7.13;100.00
67015;BME280;1033;52.560;13.374;2023-04-01T14:52:10;99812.09;;;7.15;100.00
67015;BME280;1033;52.560;13.374;2023-04-01T14:54:42;99814.78;;;7.09;100.00
67015;BME280;1033;52.560;13.374;2023-04-01T14:57:14;99818.28;;;6.96;100.00
67015;BME280;1033;52.560;13.374;2023-04-01T14:59:49;99832.34;;;6.85;100.00
67015;BME280;1033;52.560;13.374;2023-04-01T15:02:37;99829.41;;;6.80;100.00
67015;BME280;1033;52.560;13.374;2023-04-01T15:05:20;99837.06;;;6.83;100.00
67015;BME280;1033;52.560;13.374;2023-04-01T15:08:13;99842.66;;;6.75;100.00
67015;BME280;1033;52.560;13.374;2023-04-01T15:11:12;99842.88;;;6.80;100.00
67015;BME280;1033;52.560;13.374;2023-04-01T15:16:48;99847.63;;;6.84;100.00
67015;BME280;1033;52.560;13.374;2023-04-01T15:19:29;99856.09;;;6.75;100.00
67015;BME280;1033;52.560;13.374;2023-04-01T15:22:17;99862.50;;;6.74;100.00
67015;BME280;1033;52.560;13.374;2023-04-01T15:25:04;99866.00;;;6.68;100.00
67015;BME280;1033;52.560;13.374;2023-04-01T15:27:39;99867.88;;;6.67;100.00
67015;BME280;1033;52.560;13.374;2023-04-01T15:30:29;99865.34;;;6.59;100.00
67015;BME280;1033;52.560;13.374;2023-04-01T15:33:21;99867.84;;;6.61;100.00
67015;BME280;1033;52.560;13.374;2023-04-01T15:36:02;99866.22;;;6.66;100.00
67015;BME280;1033;52.560;13.374;2023-04-01T15:38:40;99879.03;;;6.71;100.00
67015;BME280;1033;52.560;13.374;2023-04-01T15:41:16;99868.28;;;6.71;100.00
67015;BME280;1033;52.560;13.374;2023-04-01T15:43:47;99878.59;;;6.61;100.00
67015;BME280;1033;52.560;13.374;2023-04-01T15:46:39;99884.75;;;6.54;100.00
67015;BME280;1033;52.560;13.374;2023-04-01T15:49:28;99894.25;;;6.50;100.00
67015;BME280;1033;52.560;13.374;2023-04-01T15:52:13;99890.53;;;6.51;100.00
67015;BME280;1033;52.560;13.374;2023-04-01T15:55:11;99903.34;;;6.49;100.00
67015;BME280;1033;52.560;13.374;2023-04-01T15:57:54;99904.81;;;6.52;100.00
67015;BME280;1033;52.560;13.374;2023-04-01T16:00:28;99909.16;;;6.53;100.00
67015;BME280;1033;52.560;13.374;2023-04-01T16:03:20;99911.03;;;6.52;100.00
67015;BME280;1033;52.560;13.374;2023-04-01T16:06:09;99914.97;;;6.57;100.00
67015;BME280;1033;52.560;13.374;2023-04-01T16:09:09;99917.59;;;6.50;100.00
67015;BME280;1033;52.560;13.374;2023-04-01T16:11:48;99914.69;;;6.38;100.00
67015;BME280;1033;52.560;13.374;2023-04-01T16:14:33;99932.47;;;6.46;100.00
67015;BME280;1033;52.560;13.374;2023-04-01T16:17:17;99932.72;;;6.51;100.00
67015;BME280;1033;52.560;13.374;2023-04-01T16:19:55;99933.69;;;6.37;100.00
67015;BME280;1033;52.560;13.374;2023-04-01T16:22:30;99944.59;;;6.35;100.00
67015;BME280;1033;52.560;13.374;2023-04-01T16:25:18;99949.16;;;6.35;100.00
67015;BME280;1033;52.560;13.374;2023-04-01T16:27:53;99952.06;;;6.33;100.00
67015;BME280;1033;52.560;13.374;2023-04-01T16:30:35;99968.56;;;6.30;100.00
67015;BME280;1033;52.560;13.374;2023-04-01T16:33:10;99970.22;;;6.31;100.00
67015;BME280;1033;52.560;13.374;2023-04-01T16:35:46;99976.38;;;6.25;100.00
67015;BME280;1033;52.560;13.374;2023-04-01T16:38:24;99972.25;;;6.23;100.00
67015;BME280;1033;52.560;13.374;2023-04-01T16:41:06;99974.75;;;6.24;100.00
67015;BME280;1033;52.560;13.374;2023-04-01T16:43:42;99980.91;;;6.25;100.00
67015;BME280;1033;52.560;13.374;2023-04-01T16:46:32;99987.28;;;6.17;100.00
67015;BME280;1033;52.560;13.374;2023-04-01T16:49:27;99985.03;;;6.21;100.00
67015;BME280;1033;52.560;13.374;2023-04-01T16:52:12;99989.91;;;6.10;100.00
67015;BME280;1033;52.560;13.374;2023-04-01T16:54:48;99994.00;;;6.06;100.00
67015;BME280;1033;52.560;13.374;2023-04-01T16:57:23;99993.97;;;6.00;100.00
67015;BME280;1033;52.560;13.374;2023-04-01T16:59:57;100009.97;;;5.87;100.00